createdAt,value
2017-05-13T00:00:24.969Z,1000.46
2017-05-13T00:00:51.065Z,1000.47
2017-05-13T00:01:17.180Z,1000.47
2017-05-13T00:01:43.315Z,1000.46
2017-05-13T00:02:09.440Z,1000.45
2017-05-13T00:02:35.552Z,1000.45
2017-05-13T00:03:01.686Z,1000.43
2017-05-13T00:03:27.860Z,1000.42
2017-05-13T00:03:53.913Z,1000.45
2017-05-13T00:04:20.008Z,1000.41
2017-05-13T00:04:46.098Z,1000.4
2017-05-13T00:05:12.236Z,1000.46
2017-05-13T00:05:38.329Z,1000.48
2017-05-13T00:06:04.445Z,1000.44
2017-05-13T00:06:30.551Z,1000.45
2017-05-13T00:06:56.651Z,1000.46
2017-05-13T00:07:22.790Z,1000.48
2017-05-13T00:07:48.946Z,1000.49
2017-05-13T00:08:15.052Z,1000.52
2017-05-13T00:08:41.138Z,1000.49
2017-05-13T00:09:07.262Z,1000.51
2017-05-13T00:09:33.395Z,1000.52
2017-05-13T00:09:59.538Z,1000.53
2017-05-13T00:10:25.658Z,1000.49
2017-05-13T00:10:51.764Z,1000.5
2017-05-13T00:11:17.884Z,1000.48
2017-05-13T00:11:43.998Z,1000.5
2017-05-13T00:12:10.133Z,1000.5
2017-05-13T00:12:36.232Z,1000.48
2017-05-13T00:13:02.393Z,1000.5
2017-05-13T00:13:28.502Z,1000.48
2017-05-13T00:13:54.628Z,1000.47
2017-05-13T00:14:20.741Z,1000.48
2017-05-13T00:14:46.871Z,1000.49
2017-05-13T00:15:13.037Z,1000.47
2017-05-13T00:15:39.176Z,1000.48
2017-05-13T00:16:05.273Z,1000.51
2017-05-13T00:16:31.390Z,1000.49
2017-05-13T00:16:57.524Z,1000.54
2017-05-13T00:17:23.652Z,1000.52
2017-05-13T00:17:49.794Z,1000.51
2017-05-13T00:18:15.895Z,1000.51
2017-05-13T00:18:42.027Z,1000.54
2017-05-13T00:19:08.139Z,1000.53
2017-05-13T00:19:34.339Z,1000.53
2017-05-13T00:20:00.443Z,1000.5
2017-05-13T00:20:26.533Z,1000.52
2017-05-13T00:20:52.665Z,1000.49
2017-05-13T00:21:18.757Z,1000.52
2017-05-13T00:21:44.885Z,1000.52
2017-05-13T00:22:10.990Z,1000.55
2017-05-13T00:22:37.079Z,1000.52
2017-05-13T00:23:03.231Z,1000.53
2017-05-13T00:23:29.364Z,1000.52
2017-05-13T00:23:55.532Z,1000.5
2017-05-13T00:24:21.627Z,1000.47
2017-05-13T00:24:47.760Z,1000.49
2017-05-13T00:25:13.856Z,1000.47
2017-05-13T00:25:39.995Z,1000.45
2017-05-13T00:26:06.098Z,1000.43
2017-05-13T00:26:32.221Z,1000.49
2017-05-13T00:26:58.329Z,1000.47
2017-05-13T00:27:24.417Z,1000.42
2017-05-13T00:27:50.565Z,1000.41
2017-05-13T00:28:16.672Z,1000.43
2017-05-13T00:28:42.790Z,1000.45
2017-05-13T00:29:08.906Z,1000.39
2017-05-13T00:29:35.043Z,1000.39
2017-05-13T00:30:01.139Z,1000.41
2017-05-13T00:30:27.231Z,1000.39
2017-05-13T00:30:53.338Z,1000.42
2017-05-13T00:31:19.437Z,1000.44
2017-05-13T00:31:45.538Z,1000.44
2017-05-13T00:32:11.631Z,1000.41
2017-05-13T00:32:37.720Z,1000.39
2017-05-13T00:33:03.855Z,1000.39
2017-05-13T00:33:30.004Z,1000.4
2017-05-13T00:33:56.167Z,1000.41
2017-05-13T00:34:22.297Z,1000.39
2017-05-13T00:34:48.424Z,1000.44
2017-05-13T00:35:14.538Z,1000.41
2017-05-13T00:35:40.638Z,1000.42
2017-05-13T00:36:06.744Z,1000.41
2017-05-13T00:36:32.831Z,1000.47
2017-05-13T00:36:58.952Z,1000.47
2017-05-13T00:37:25.071Z,1000.49
2017-05-13T00:37:51.205Z,1000.48
2017-05-13T00:38:17.366Z,1000.5
2017-05-13T00:38:43.475Z,1000.49
2017-05-13T00:39:09.607Z,1000.46
2017-05-13T00:39:35.714Z,1000.47
2017-05-13T00:40:01.827Z,1000.5
2017-05-13T00:40:27.926Z,1000.48
2017-05-13T00:40:54.056Z,1000.44
2017-05-13T00:41:20.175Z,1000.41
2017-05-13T00:41:46.273Z,1000.45
2017-05-13T00:42:12.408Z,1000.41
2017-05-13T00:42:38.556Z,1000.39
2017-05-13T00:43:04.661Z,1000.4
2017-05-13T00:43:30.750Z,1000.41
2017-05-13T00:43:56.874Z,1000.37
2017-05-13T00:44:23.006Z,1000.38
2017-05-13T00:44:49.121Z,1000.37
2017-05-13T00:45:15.242Z,1000.37
2017-05-13T00:45:41.347Z,1000.38
2017-05-13T00:46:07.440Z,1000.4
2017-05-13T00:46:33.605Z,1000.45
2017-05-13T00:46:59.714Z,1000.4
2017-05-13T00:47:25.813Z,1000.41
2017-05-13T00:47:51.903Z,1000.39
2017-05-13T00:48:18.090Z,1000.38
2017-05-13T00:48:44.230Z,1000.37
2017-05-13T00:49:10.391Z,1000.37
2017-05-13T00:49:36.509Z,1000.4
2017-05-13T00:50:02.624Z,1000.36
2017-05-13T00:50:28.758Z,1000.34
2017-05-13T00:50:54.883Z,1000.35
2017-05-13T00:51:21.045Z,1000.35
2017-05-13T00:51:47.180Z,1000.37
2017-05-13T00:52:13.307Z,1000.35
2017-05-13T00:52:39.397Z,1000.38
2017-05-13T00:53:05.501Z,1000.34
2017-05-13T00:53:31.701Z,1000.32
2017-05-13T00:53:57.750Z,1000.33
2017-05-13T00:54:23.924Z,1000.31
2017-05-13T00:54:50.031Z,1000.32
2017-05-13T00:55:16.173Z,1000.3
2017-05-13T00:55:42.271Z,1000.3
2017-05-13T00:56:08.401Z,1000.32
2017-05-13T00:56:34.516Z,1000.31
2017-05-13T00:57:00.609Z,1000.31
2017-05-13T00:57:26.756Z,1000.29
2017-05-13T00:57:52.909Z,1000.27
2017-05-13T00:58:18.997Z,1000.31
2017-05-13T00:58:45.101Z,1000.26
2017-05-13T00:59:11.200Z,1000.28
2017-05-13T00:59:37.325Z,1000.27
2017-05-13T01:00:03.443Z,1000.24
2017-05-13T01:00:29.532Z,1000.24
2017-05-13T01:00:55.644Z,1000.25
2017-05-13T01:01:21.740Z,1000.22
2017-05-13T01:01:47.856Z,1000.22
2017-05-13T01:02:13.961Z,1000.21
2017-05-13T01:02:40.060Z,1000.19
2017-05-13T01:03:06.200Z,1000.17
2017-05-13T01:03:32.304Z,1000.19
2017-05-13T01:03:58.464Z,1000.21
2017-05-13T01:04:24.552Z,1000.16
2017-05-13T01:04:50.727Z,1000.16
2017-05-13T01:05:16.847Z,1000.18
2017-05-13T01:05:43.020Z,1000.12
2017-05-13T01:06:09.160Z,1000.14
2017-05-13T01:06:35.252Z,1000.14
2017-05-13T01:07:01.355Z,1000.12
2017-05-13T01:07:27.490Z,1000.12
2017-05-13T01:07:53.603Z,1000.13
2017-05-13T01:08:19.727Z,1000.13
2017-05-13T01:08:45.831Z,1000.17
2017-05-13T01:09:11.922Z,1000.15
2017-05-13T01:09:38.068Z,1000.19
2017-05-13T01:10:04.232Z,1000.17
2017-05-13T01:10:30.325Z,1000.18
2017-05-13T01:10:56.457Z,1000.17
2017-05-13T01:11:22.571Z,1000.19
2017-05-13T01:11:48.681Z,1000.2
2017-05-13T01:12:14.777Z,1000.22
2017-05-13T01:12:40.890Z,1000.21
2017-05-13T01:13:07.036Z,1000.18
2017-05-13T01:13:33.141Z,1000.18
2017-05-13T01:13:59.262Z,1000.19
2017-05-13T01:14:25.403Z,1000.2
2017-05-13T01:14:51.510Z,1000.18
2017-05-13T01:15:17.662Z,1000.15
2017-05-13T01:15:43.778Z,1000.13
2017-05-13T01:16:09.884Z,1000.13
2017-05-13T01:16:35.977Z,1000.12
2017-05-13T01:17:02.082Z,1000.13
2017-05-13T01:17:28.204Z,1000.07
2017-05-13T01:17:54.345Z,1000.08
2017-05-13T01:18:20.480Z,1000.07
2017-05-13T01:18:46.630Z,1000.07
2017-05-13T01:19:12.720Z,1000.07
2017-05-13T01:19:38.880Z,1000.03
2017-05-13T01:20:05.010Z,1000.04
2017-05-13T01:20:31.098Z,1000.03
2017-05-13T01:20:57.197Z,1000.08
2017-05-13T01:21:23.306Z,1000.09
2017-05-13T01:21:49.397Z,1000.07
2017-05-13T01:22:15.521Z,1000.04
2017-05-13T01:22:41.659Z,1000.07
2017-05-13T01:23:07.794Z,1000.09
2017-05-13T01:23:33.922Z,1000.09
2017-05-13T01:24:00.063Z,1000.08
2017-05-13T01:24:26.164Z,1000.09
2017-05-13T01:24:52.354Z,1000.04
2017-05-13T01:25:18.441Z,1000.07
2017-05-13T01:25:44.563Z,1000.08
2017-05-13T01:26:10.669Z,1000.11
2017-05-13T01:26:36.785Z,1000.1
2017-05-13T01:27:02.884Z,1000.11
2017-05-13T01:27:29.004Z,1000.12
2017-05-13T01:27:55.137Z,1000.1
2017-05-13T01:28:21.269Z,1000.1
2017-05-13T01:28:47.381Z,1000.09
2017-05-13T01:29:13.504Z,1000.12
2017-05-13T01:29:39.635Z,1000.13
2017-05-13T01:30:05.750Z,1000.13
2017-05-13T01:30:31.895Z,1000.06
2017-05-13T01:30:58.001Z,1000.08
2017-05-13T01:31:24.093Z,1000.14
2017-05-13T01:31:50.209Z,1000.1
2017-05-13T01:32:16.351Z,1000.12
2017-05-13T01:32:42.473Z,1000.13
2017-05-13T01:33:08.576Z,1000.1
2017-05-13T01:33:34.668Z,1000.11
2017-05-13T01:34:00.789Z,1000.13
2017-05-13T01:34:26.894Z,1000.14
2017-05-13T01:34:53.013Z,1000.11
2017-05-13T01:35:19.129Z,1000.14
2017-05-13T01:35:45.268Z,1000.15
2017-05-13T01:36:11.416Z,1000.15
2017-05-13T01:36:37.507Z,1000.13
2017-05-13T01:37:03.612Z,1000.12
2017-05-13T01:37:29.740Z,1000.13
2017-05-13T01:37:55.853Z,1000.13
2017-05-13T01:38:21.958Z,1000.15
2017-05-13T01:38:48.063Z,1000.19
2017-05-13T01:39:14.150Z,1000.15
2017-05-13T01:39:40.247Z,1000.16
2017-05-13T01:40:06.381Z,1000.18
2017-05-13T01:40:32.497Z,1000.16
2017-05-13T01:40:58.593Z,1000.18
2017-05-13T01:41:24.697Z,1000.19
2017-05-13T01:41:50.791Z,1000.2
2017-05-13T01:42:16.881Z,1000.17
2017-05-13T01:42:43.005Z,1000.2
2017-05-13T01:43:09.143Z,1000.25
2017-05-13T01:43:35.305Z,1000.21
2017-05-13T01:44:01.411Z,1000.24
2017-05-13T01:44:27.555Z,1000.24
2017-05-13T01:44:53.662Z,1000.25
2017-05-13T01:45:19.756Z,1000.26
2017-05-13T01:45:45.893Z,1000.26
2017-05-13T01:46:12.056Z,1000.27
2017-05-13T01:46:38.175Z,1000.3
2017-05-13T01:47:04.267Z,1000.3
2017-05-13T01:47:30.376Z,1000.26
2017-05-13T01:47:56.502Z,1000.32
2017-05-13T01:48:22.614Z,1000.29
2017-05-13T01:48:48.717Z,1000.35
2017-05-13T01:49:14.878Z,1000.32
2017-05-13T01:49:40.998Z,1000.39
2017-05-13T01:50:07.122Z,1000.38
2017-05-13T01:50:33.214Z,1000.4
2017-05-13T01:50:59.350Z,1000.38
2017-05-13T01:51:25.449Z,1000.41
2017-05-13T01:51:51.590Z,1000.44
2017-05-13T01:52:17.693Z,1000.4
2017-05-13T01:52:43.827Z,1000.39
2017-05-13T01:53:09.941Z,1000.45
2017-05-13T01:53:36.067Z,1000.47
2017-05-13T01:54:02.201Z,1000.49
2017-05-13T01:54:28.384Z,1000.45
2017-05-13T01:54:54.459Z,1000.47
2017-05-13T01:55:20.555Z,1000.44
2017-05-13T01:55:46.684Z,1000.45
2017-05-13T01:56:12.816Z,1000.51
2017-05-13T01:56:38.929Z,1000.48
2017-05-13T01:57:05.028Z,1000.46
2017-05-13T01:57:31.134Z,1000.47
2017-05-13T01:57:57.251Z,1000.49
2017-05-13T01:58:23.349Z,1000.46
2017-05-13T01:58:49.456Z,1000.46
2017-05-13T01:59:15.628Z,1000.5
2017-05-13T01:59:41.769Z,1000.52
2017-05-13T02:00:07.932Z,1000.52
2017-05-13T02:00:34.112Z,1000.5
2017-05-13T02:01:00.212Z,1000.52
2017-05-13T02:01:26.329Z,1000.57
2017-05-13T02:01:52.452Z,1000.54
2017-05-13T02:02:18.610Z,1000.54
2017-05-13T02:02:44.705Z,1000.53
2017-05-13T02:03:10.842Z,1000.51
2017-05-13T02:03:37.007Z,1000.52
2017-05-13T02:04:03.103Z,1000.53
2017-05-13T02:04:29.242Z,1000.54
2017-05-13T02:04:55.350Z,1000.55
2017-05-13T02:05:21.479Z,1000.53
2017-05-13T02:05:47.595Z,1000.53
2017-05-13T02:06:13.698Z,1000.54
2017-05-13T02:06:39.844Z,1000.52
2017-05-13T02:07:05.952Z,1000.54
2017-05-13T02:07:32.048Z,1000.54
2017-05-13T02:07:58.162Z,1000.51
2017-05-13T02:08:24.267Z,1000.51
2017-05-13T02:08:50.367Z,1000.57
2017-05-13T02:09:16.457Z,1000.55
2017-05-13T02:09:42.589Z,1000.55
2017-05-13T02:10:08.748Z,1000.56
2017-05-13T02:10:34.858Z,1000.54
2017-05-13T02:11:00.955Z,1000.58
2017-05-13T02:11:27.062Z,1000.56
2017-05-13T02:11:53.228Z,1000.56
2017-05-13T02:12:19.330Z,1000.55
2017-05-13T02:12:45.446Z,1000.57
2017-05-13T02:13:11.572Z,1000.52
2017-05-13T02:13:37.720Z,1000.54
2017-05-13T02:14:03.833Z,1000.54
2017-05-13T02:14:29.960Z,1000.51
2017-05-13T02:14:56.093Z,1000.49
2017-05-13T02:15:22.212Z,1000.51
2017-05-13T02:15:48.310Z,1000.52
2017-05-13T02:16:14.444Z,1000.5
2017-05-13T02:16:40.598Z,1000.49
2017-05-13T02:17:06.714Z,1000.48
2017-05-13T02:17:32.815Z,1000.48
2017-05-13T02:17:58.996Z,1000.5
2017-05-13T02:18:25.134Z,1000.49
2017-05-13T02:18:51.245Z,1000.47
2017-05-13T02:19:17.371Z,1000.46
2017-05-13T02:19:43.534Z,1000.47
2017-05-13T02:20:09.650Z,1000.48
2017-05-13T02:20:35.790Z,1000.48
2017-05-13T02:21:01.928Z,1000.49
2017-05-13T02:21:28.024Z,1000.5
2017-05-13T02:21:54.153Z,1000.5
2017-05-13T02:22:20.219Z,1000.48
2017-05-13T02:22:46.372Z,1000.52
2017-05-13T02:23:12.512Z,1000.49
2017-05-13T02:23:38.639Z,1000.49
2017-05-13T02:24:04.803Z,1000.48
2017-05-13T02:24:30.938Z,1000.48
2017-05-13T02:24:57.039Z,1000.5
2017-05-13T02:25:23.172Z,1000.49
2017-05-13T02:25:49.261Z,1000.53
2017-05-13T02:26:15.360Z,1000.5
2017-05-13T02:26:41.465Z,1000.51
2017-05-13T02:27:07.681Z,1000.54
2017-05-13T02:27:33.773Z,1000.57
2017-05-13T02:27:59.939Z,1000.56
2017-05-13T02:28:26.074Z,1000.58
2017-05-13T02:28:52.205Z,1000.6
2017-05-13T02:29:18.296Z,1000.6
2017-05-13T02:29:44.392Z,1000.6
2017-05-13T02:30:10.527Z,1000.57
2017-05-13T02:30:36.654Z,1000.6
2017-05-13T02:31:02.791Z,1000.59
2017-05-13T02:31:28.891Z,1000.62
2017-05-13T02:31:54.986Z,1000.54
2017-05-13T02:32:21.098Z,1000.56
2017-05-13T02:32:47.264Z,1000.57
2017-05-13T02:33:13.415Z,1000.54
2017-05-13T02:33:39.517Z,1000.54
2017-05-13T02:34:05.660Z,1000.55
2017-05-13T02:34:31.777Z,1000.52
2017-05-13T02:34:57.890Z,1000.54
2017-05-13T02:35:23.985Z,1000.56
2017-05-13T02:35:50.085Z,1000.5
2017-05-13T02:36:16.188Z,1000.54
2017-05-13T02:36:42.352Z,1000.53
2017-05-13T02:37:08.463Z,1000.53
2017-05-13T02:37:34.568Z,1000.54
2017-05-13T02:38:00.674Z,1000.55
2017-05-13T02:38:26.765Z,1000.52
2017-05-13T02:38:52.917Z,1000.54
2017-05-13T02:39:19.024Z,1000.57
2017-05-13T02:39:45.165Z,1000.55
2017-05-13T02:40:11.295Z,1000.57
2017-05-13T02:40:37.387Z,1000.55
2017-05-13T02:41:03.491Z,1000.52
2017-05-13T02:41:29.653Z,1000.56
2017-05-13T02:41:55.736Z,1000.58
2017-05-13T02:42:21.837Z,1000.53
2017-05-13T02:42:47.972Z,1000.55
2017-05-13T02:43:14.109Z,1000.56
2017-05-13T02:43:40.208Z,1000.54
2017-05-13T02:44:06.367Z,1000.54
2017-05-13T02:44:32.513Z,1000.61
2017-05-13T02:44:58.604Z,1000.61
2017-05-13T02:45:24.752Z,1000.56
2017-05-13T02:45:50.848Z,1000.56
2017-05-13T02:46:17.009Z,1000.57
2017-05-13T02:46:43.123Z,1000.6
2017-05-13T02:47:09.265Z,1000.58
2017-05-13T02:47:35.374Z,1000.58
2017-05-13T02:48:01.467Z,1000.59
2017-05-13T02:48:27.557Z,1000.58
2017-05-13T02:48:53.692Z,1000.59
2017-05-13T02:49:19.810Z,1000.59
2017-05-13T02:49:45.902Z,1000.58
2017-05-13T02:50:12.061Z,1000.6
2017-05-13T02:50:38.161Z,1000.62
2017-05-13T02:51:04.282Z,1000.61
2017-05-13T02:51:30.390Z,1000.57
2017-05-13T02:51:56.470Z,1000.6
2017-05-13T02:52:22.607Z,1000.62
2017-05-13T02:52:48.704Z,1000.63
2017-05-13T02:53:14.831Z,1000.64
2017-05-13T02:53:40.957Z,1000.64
2017-05-13T02:54:07.081Z,1000.65
2017-05-13T02:54:33.173Z,1000.64
2017-05-13T02:54:59.275Z,1000.66
2017-05-13T02:55:25.383Z,1000.67
2017-05-13T02:55:51.470Z,1000.66
2017-05-13T02:56:17.569Z,1000.65
2017-05-13T02:56:43.663Z,1000.68
2017-05-13T02:57:09.773Z,1000.66
2017-05-13T02:57:38.993Z,1000.68
2017-05-13T02:58:05.131Z,1000.7
2017-05-13T02:58:31.262Z,1000.67
2017-05-13T02:58:57.380Z,1000.68
2017-05-13T02:59:23.540Z,1000.7
2017-05-13T02:59:49.665Z,1000.71
2017-05-13T03:00:15.843Z,1000.7
2017-05-13T03:00:41.976Z,1000.72
2017-05-13T03:01:08.096Z,1000.7
2017-05-13T03:01:34.202Z,1000.72
2017-05-13T03:02:00.320Z,1000.71
2017-05-13T03:02:26.430Z,1000.68
2017-05-13T03:02:52.548Z,1000.72
2017-05-13T03:03:18.698Z,1000.75
2017-05-13T03:03:44.867Z,1000.75
2017-05-13T03:04:10.980Z,1000.76
2017-05-13T03:04:37.080Z,1000.74
2017-05-13T03:05:03.227Z,1000.75
2017-05-13T03:05:29.323Z,1000.77
2017-05-13T03:05:55.426Z,1000.77
2017-05-13T03:06:21.534Z,1000.76
2017-05-13T03:06:47.644Z,1000.8
2017-05-13T03:07:13.760Z,1000.77
2017-05-13T03:07:39.896Z,1000.75
2017-05-13T03:08:05.998Z,1000.77
2017-05-13T03:08:32.096Z,1000.79
2017-05-13T03:08:58.221Z,1000.77
2017-05-13T03:09:24.430Z,1000.81
2017-05-13T03:09:50.580Z,1000.78
2017-05-13T03:10:16.680Z,1000.79
2017-05-13T03:10:42.800Z,1000.78
2017-05-13T03:11:08.920Z,1000.84
2017-05-13T03:11:35.051Z,1000.8
2017-05-13T03:12:01.153Z,1000.8
2017-05-13T03:12:27.250Z,1000.81
2017-05-13T03:12:53.389Z,1000.77
2017-05-13T03:13:19.498Z,1000.76
2017-05-13T03:13:45.598Z,1000.77
2017-05-13T03:14:11.704Z,1000.73
2017-05-13T03:14:37.809Z,1000.73
2017-05-13T03:15:03.940Z,1000.75
2017-05-13T03:15:30.127Z,1000.75
2017-05-13T03:15:56.219Z,1000.72
2017-05-13T03:16:22.334Z,1000.75
2017-05-13T03:16:48.466Z,1000.74
2017-05-13T03:17:14.585Z,1000.78
2017-05-13T03:17:40.684Z,1000.76
2017-05-13T03:18:06.790Z,1000.8
2017-05-13T03:18:32.900Z,1000.82
2017-05-13T03:18:59.073Z,1000.79
2017-05-13T03:19:25.242Z,1000.81
2017-05-13T03:19:51.382Z,1000.84
2017-05-13T03:20:17.532Z,1000.85
2017-05-13T03:20:43.692Z,1000.83
2017-05-13T03:21:09.797Z,1000.87
2017-05-13T03:21:35.908Z,1000.88
2017-05-13T03:22:02.007Z,1000.87
2017-05-13T03:22:28.098Z,1000.88
2017-05-13T03:22:54.297Z,1000.88
2017-05-13T03:23:20.524Z,1000.89
2017-05-13T03:23:46.636Z,1000.9
2017-05-13T03:24:12.754Z,1000.9
2017-05-13T03:24:38.933Z,1000.93
2017-05-13T03:25:05.077Z,1001
2017-05-13T03:25:31.176Z,1001
2017-05-13T03:25:57.266Z,1001
2017-05-13T03:26:23.378Z,1001
2017-05-13T03:26:49.531Z,1001.01
2017-05-13T03:27:15.659Z,1000.99
2017-05-13T03:27:41.784Z,1001.01
2017-05-13T03:28:07.964Z,1001.02
2017-05-13T03:28:34.143Z,1001.01
2017-05-13T03:29:00.320Z,1001.03
2017-05-13T03:29:26.489Z,1001.05
2017-05-13T03:29:52.656Z,1001.05
2017-05-13T03:30:18.793Z,1001.03
2017-05-13T03:30:44.882Z,1001.04
2017-05-13T03:31:11.012Z,1001.04
2017-05-13T03:31:37.146Z,1001.03
2017-05-13T03:32:03.266Z,1001.06
2017-05-13T03:32:29.411Z,1001.05
2017-05-13T03:32:55.520Z,1001.06
2017-05-13T03:33:21.613Z,1001.04
2017-05-13T03:33:47.727Z,1001.07
2017-05-13T03:34:13.863Z,1001.06
2017-05-13T03:34:40.009Z,1001.05
2017-05-13T03:35:06.148Z,1001.05
2017-05-13T03:35:32.278Z,1001.04
2017-05-13T03:35:58.373Z,1001.1
2017-05-13T03:36:24.478Z,1001.09
2017-05-13T03:36:50.569Z,1001.11
2017-05-13T03:37:16.682Z,1001.13
2017-05-13T03:37:42.793Z,1001.14
2017-05-13T03:38:08.889Z,1001.15
2017-05-13T03:38:35.008Z,1001.09
2017-05-13T03:39:01.141Z,1001.12
2017-05-13T03:39:27.266Z,1001.14
2017-05-13T03:39:53.380Z,1001.12
2017-05-13T03:40:19.481Z,1001.11
2017-05-13T03:40:45.587Z,1001.14
2017-05-13T03:41:11.681Z,1001.15
2017-05-13T03:41:37.776Z,1001.14
2017-05-13T03:42:03.914Z,1001.12
2017-05-13T03:42:30.071Z,1001.12
2017-05-13T03:42:56.198Z,1001.13
2017-05-13T03:43:22.339Z,1001.14
2017-05-13T03:43:48.571Z,1001.12
2017-05-13T03:44:14.679Z,1001.12
2017-05-13T03:44:40.769Z,1001.16
2017-05-13T03:45:06.943Z,1001.12
2017-05-13T03:45:33.049Z,1001.13
2017-05-13T03:45:59.164Z,1001.13
2017-05-13T03:46:25.262Z,1001.16
2017-05-13T03:46:51.359Z,1001.15
2017-05-13T03:47:17.465Z,1001.16
2017-05-13T03:47:43.569Z,1001.15
2017-05-13T03:48:09.681Z,1001.16
2017-05-13T03:48:35.778Z,1001.14
2017-05-13T03:49:01.938Z,1001.13
2017-05-13T03:49:28.051Z,1001.15
2017-05-13T03:49:54.146Z,1001.13
2017-05-13T03:50:20.279Z,1001.12
2017-05-13T03:50:46.373Z,1001.14
2017-05-13T03:51:12.464Z,1001.14
2017-05-13T03:51:38.569Z,1001.1
2017-05-13T03:52:04.693Z,1001.1
2017-05-13T03:52:30.859Z,1001.1
2017-05-13T03:52:57.044Z,1001.12
2017-05-13T03:53:23.144Z,1001.11
2017-05-13T03:53:49.232Z,1001.16
2017-05-13T03:54:15.333Z,1001.13
2017-05-13T03:54:41.439Z,1001.1
2017-05-13T03:55:07.526Z,1001.13
2017-05-13T03:55:33.626Z,1001.11
2017-05-13T03:55:59.791Z,1001.05
2017-05-13T03:56:26.007Z,1001.09
2017-05-13T03:56:52.130Z,1001.09
2017-05-13T03:57:18.231Z,1001.06
2017-05-13T03:57:44.325Z,1001.06
2017-05-13T03:58:10.457Z,1001.08
2017-05-13T03:58:36.593Z,1001.06
2017-05-13T03:59:02.695Z,1001.1
2017-05-13T03:59:28.884Z,1001.04
2017-05-13T03:59:55.049Z,1001.06
2017-05-13T04:00:21.168Z,1001.11
2017-05-13T04:00:47.275Z,1001.06
2017-05-13T04:01:13.395Z,1001.07
2017-05-13T04:01:39.532Z,1001.08
2017-05-13T04:02:05.639Z,1001.11
2017-05-13T04:02:31.734Z,1001.13
2017-05-13T04:02:57.874Z,1001.1
2017-05-13T04:03:24.006Z,1001.08
2017-05-13T04:03:50.124Z,1001.1
2017-05-13T04:04:16.230Z,1001.1
2017-05-13T04:04:42.374Z,1001.12
2017-05-13T04:05:08.489Z,1001.14
2017-05-13T04:05:34.654Z,1001.11
2017-05-13T04:06:00.752Z,1001.11
2017-05-13T04:06:26.891Z,1001.13
2017-05-13T04:06:52.996Z,1001.12
2017-05-13T04:07:19.150Z,1001.12
2017-05-13T04:07:45.238Z,1001.17
2017-05-13T04:08:11.366Z,1001.16
2017-05-13T04:08:37.497Z,1001.17
2017-05-13T04:09:03.661Z,1001.15
2017-05-13T04:09:29.844Z,1001.17
2017-05-13T04:09:55.981Z,1001.16
2017-05-13T04:10:22.086Z,1001.2
2017-05-13T04:10:48.239Z,1001.17
2017-05-13T04:11:14.355Z,1001.18
2017-05-13T04:11:40.473Z,1001.18
2017-05-13T04:12:06.609Z,1001.17
2017-05-13T04:12:32.721Z,1001.17
2017-05-13T04:12:58.867Z,1001.19
2017-05-13T04:13:25.002Z,1001.23
2017-05-13T04:13:51.117Z,1001.23
2017-05-13T04:14:17.212Z,1001.23
2017-05-13T04:14:43.338Z,1001.22
2017-05-13T04:15:09.470Z,1001.21
2017-05-13T04:15:35.576Z,1001.21
2017-05-13T04:16:01.662Z,1001.21
2017-05-13T04:16:27.786Z,1001.25
2017-05-13T04:16:53.892Z,1001.24
2017-05-13T04:17:19.984Z,1001.22
2017-05-13T04:17:46.129Z,1001.24
2017-05-13T04:18:12.233Z,1001.25
2017-05-13T04:18:38.357Z,1001.23
2017-05-13T04:19:04.496Z,1001.21
2017-05-13T04:19:30.661Z,1001.21
2017-05-13T04:19:56.787Z,1001.18
2017-05-13T04:20:22.915Z,1001.2
2017-05-13T04:20:49.005Z,1001.19
2017-05-13T04:21:15.133Z,1001.17
2017-05-13T04:21:41.290Z,1001.16
2017-05-13T04:22:07.407Z,1001.19
2017-05-13T04:22:33.499Z,1001.18
2017-05-13T04:22:59.636Z,1001.17
2017-05-13T04:23:25.787Z,1001.14
2017-05-13T04:23:51.902Z,1001.17
2017-05-13T04:24:18.010Z,1001.19
2017-05-13T04:24:44.138Z,1001.18
2017-05-13T04:25:10.273Z,1001.18
2017-05-13T04:25:36.374Z,1001.19
2017-05-13T04:26:02.463Z,1001.16
2017-05-13T04:26:28.570Z,1001.2
2017-05-13T04:26:54.694Z,1001.19
2017-05-13T04:27:20.811Z,1001.24
2017-05-13T04:27:46.945Z,1001.18
2017-05-13T04:28:13.129Z,1001.17
2017-05-13T04:28:39.254Z,1001.21
2017-05-13T04:29:05.383Z,1001.22
2017-05-13T04:29:31.574Z,1001.2
2017-05-13T04:29:57.687Z,1001.21
2017-05-13T04:30:23.812Z,1001.24
2017-05-13T04:30:49.945Z,1001.21
2017-05-13T04:31:16.037Z,1001.25
2017-05-13T04:31:42.139Z,1001.25
2017-05-13T04:32:08.255Z,1001.28
2017-05-13T04:32:34.359Z,1001.28
2017-05-13T04:33:00.467Z,1001.27
2017-05-13T04:33:26.575Z,1001.29
2017-05-13T04:33:52.677Z,1001.3
2017-05-13T04:34:18.782Z,1001.27
2017-05-13T04:34:44.925Z,1001.28
2017-05-13T04:35:11.047Z,1001.24
2017-05-13T04:35:37.154Z,1001.25
2017-05-13T04:36:03.299Z,1001.27
2017-05-13T04:36:29.389Z,1001.25
2017-05-13T04:36:55.526Z,1001.3
2017-05-13T04:37:21.622Z,1001.33
2017-05-13T04:37:47.709Z,1001.29
2017-05-13T04:38:13.871Z,1001.24
2017-05-13T04:38:39.998Z,1001.28
2017-05-13T04:39:06.137Z,1001.24
2017-05-13T04:39:32.241Z,1001.27
2017-05-13T04:39:58.376Z,1001.26
2017-05-13T04:40:24.485Z,1001.29
2017-05-13T04:40:50.611Z,1001.31
2017-05-13T04:41:16.715Z,1001.31
2017-05-13T04:41:42.805Z,1001.3
2017-05-13T04:42:08.926Z,1001.31
2017-05-13T04:42:35.023Z,1001.32
2017-05-13T04:43:01.178Z,1001.33
2017-05-13T04:43:27.310Z,1001.37
2017-05-13T04:43:53.423Z,1001.35
2017-05-13T04:44:19.522Z,1001.34
2017-05-13T04:44:45.654Z,1001.35
2017-05-13T04:45:11.798Z,1001.36
2017-05-13T04:45:37.893Z,1001.34
2017-05-13T04:46:04.001Z,1001.36
2017-05-13T04:46:30.118Z,1001.39
2017-05-13T04:46:56.209Z,1001.37
2017-05-13T04:47:22.375Z,1001.37
2017-05-13T04:47:48.470Z,1001.37
2017-05-13T04:48:14.575Z,1001.39
2017-05-13T04:48:40.695Z,1001.39
2017-05-13T04:49:06.817Z,1001.36
2017-05-13T04:49:32.978Z,1001.36
2017-05-13T04:49:59.099Z,1001.38
2017-05-13T04:50:25.190Z,1001.42
2017-05-13T04:50:51.299Z,1001.39
2017-05-13T04:51:17.397Z,1001.37
2017-05-13T04:51:43.486Z,1001.39
2017-05-13T04:52:09.593Z,1001.43
2017-05-13T04:52:35.692Z,1001.43
2017-05-13T04:53:01.780Z,1001.44
2017-05-13T04:53:27.907Z,1001.47
2017-05-13T04:53:53.996Z,1001.48
2017-05-13T04:54:20.107Z,1001.47
2017-05-13T04:54:46.230Z,1001.51
2017-05-13T04:55:12.347Z,1001.52
2017-05-13T04:55:38.472Z,1001.54
2017-05-13T04:56:04.621Z,1001.53
2017-05-13T04:56:30.689Z,1001.55
2017-05-13T04:56:56.846Z,1001.53
2017-05-13T04:57:23.004Z,1001.59
2017-05-13T04:57:49.092Z,1001.59
2017-05-13T04:58:15.214Z,1001.62
2017-05-13T04:58:41.323Z,1001.59
2017-05-13T04:59:07.435Z,1001.62
2017-05-13T04:59:33.606Z,1001.65
2017-05-13T04:59:59.713Z,1001.61
2017-05-13T05:00:25.835Z,1001.65
2017-05-13T05:00:51.925Z,1001.62
2017-05-13T05:01:18.058Z,1001.63
2017-05-13T05:01:44.153Z,1001.64
2017-05-13T05:02:10.270Z,1001.6
2017-05-13T05:02:36.376Z,1001.62
2017-05-13T05:03:02.504Z,1001.6
2017-05-13T05:03:28.618Z,1001.62
2017-05-13T05:03:54.746Z,1001.65
2017-05-13T05:04:20.853Z,1001.65
2017-05-13T05:04:46.946Z,1001.65
2017-05-13T05:05:13.070Z,1001.64
2017-05-13T05:05:39.183Z,1001.62
2017-05-13T05:06:05.288Z,1001.63
2017-05-13T05:06:31.417Z,1001.65
2017-05-13T05:06:57.556Z,1001.65
2017-05-13T05:07:23.657Z,1001.64
2017-05-13T05:07:49.791Z,1001.69
2017-05-13T05:08:15.905Z,1001.68
2017-05-13T05:08:42.028Z,1001.71
2017-05-13T05:09:08.186Z,1001.69
2017-05-13T05:09:34.276Z,1001.7
2017-05-13T05:10:00.373Z,1001.68
2017-05-13T05:10:26.470Z,1001.7
2017-05-13T05:10:52.600Z,1001.69
2017-05-13T05:11:18.707Z,1001.71
2017-05-13T05:11:44.818Z,1001.72
2017-05-13T05:12:10.918Z,1001.77
2017-05-13T05:12:37.022Z,1001.74
2017-05-13T05:13:03.164Z,1001.75
2017-05-13T05:13:29.311Z,1001.75
2017-05-13T05:13:55.472Z,1001.76
2017-05-13T05:14:21.591Z,1001.75
2017-05-13T05:14:47.707Z,1001.77
2017-05-13T05:15:13.816Z,1001.78
2017-05-13T05:15:39.913Z,1001.76
2017-05-13T05:16:06.017Z,1001.76
2017-05-13T05:16:32.105Z,1001.8
2017-05-13T05:16:58.250Z,1001.8
2017-05-13T05:17:24.410Z,1001.79